Time;durP1;ratioP1;P1;durP2;ratioP2;P2;SDS_P1;SDS_P2;PMS_P1;PMS_P2;Temp;Humidity;BMP_temperature;BMP_pressure;BME280_temperature;BME280_humidity;BME280_pressure;Samples;Min_cycle;Max_cycle;Signal;HPM_P1;HPM_P2
2023/08/08 00:01:05;;;;;;;;;;;;;;;;;;2202386;59;1747;-17
2023/08/08 00:03:36;;;;;;;;;;;;;;;;;;2201647;59;1951;-19
2023/08/08 00:06:09;;;;;;;;;;;;;;;;;;2201993;66;1156;-17
2023/08/08 00:08:39;;;;;;;;;;;;;;;;;;2203248;66;1513;-17
2023/08/08 00:11:09;;;;;;;;;;;;;;;;;;2201766;59;1945;-16
2023/08/08 00:13:39;;;;;;;;;;;;;;;;;;2202756;59;2246;-17
2023/08/08 00:16:10;;;;;;;;;;;;;;;;;;2201661;66;1740;-16
2023/08/08 00:18:40;;;;;;;;;;;;;;;;;;2202262;66;1921;-17
2023/08/08 00:21:10;;;;;;;;;;;;;;;;;;2202509;67;1583;-17
2023/08/08 00:23:40;;;;;;;;;;;;;;;;;;2202129;66;1124;-17
2023/08/08 00:26:11;;;;;;;;;;;;;;;;;;2201647;66;2008;-17
2023/08/08 00:28:41;;;;;;;;;;;;;;;;;;2202282;66;2742;-17
2023/08/08 00:31:11;;;;;;;;;;;;;;;;;;2202353;59;3040;-17
2023/08/08 00:33:41;;;;;;;;;;;;;;;;;;2202932;63;1877;-17
2023/08/08 00:36:12;;;;;;;;;;;;;;;;;;2202185;66;1974;-17
2023/08/08 00:38:42;;;;;;;;;;;;;;;;;;2203444;66;2224;-17
2023/08/08 00:41:12;;;;;;;;;;;;;;;;;;2201758;66;2109;-17
2023/08/08 00:43:43;;;;;;;;;;;;;;;;;;2204111;66;1496;-17
2023/08/08 00:46:14;;;;;;;;;;;;;;;;;;2201696;59;2060;-17
2023/08/08 00:48:44;;;;;;;;;;;;;;;;;;2201960;67;1761;-19
2023/08/08 00:51:14;;;;;;;;;;;;;;;;;;2202016;59;1582;-19
2023/08/08 00:53:45;;;;;;;;;;;;;;;;;;2202754;58;1204;-19
2023/08/08 00:56:16;;;;;;;;;;;;;;;;;;2201473;59;1795;-19
2023/08/08 00:58:49;;;;;;;;;;;;;;;;;;2203614;66;2004;-19
2023/08/08 01:01:19;;;;;;;;;;;;;;;;;;2202393;59;1325;-19
2023/08/08 01:03:50;;;;;;;;;;;;;;;;;;2203008;66;1590;-19
2023/08/08 01:06:26;;;;;;;;;;;;;;;;;;2202035;66;1346;-19
2023/08/08 01:09:04;;;;;;;;;;;;;;;;;;2203589;66;1696;-19
2023/08/08 01:11:35;;;;;;;;;;;;;;;;;;2203885;59;1844;-19
2023/08/08 01:14:07;;;;;;;;;;;;;;;;;;2202683;66;1945;-19
2023/08/08 01:16:39;;;;;;;;;;;;;;;;;;2202054;67;1689;-19
2023/08/08 01:19:11;;;;;;;;;;;;;;;;;;2201601;66;1944;-17
2023/08/08 01:21:43;;;;;;;;;;;;;;;;;;2203069;66;1396;-19
2023/08/08 01:24:17;;;;;;;;;;;;;;;;;;2201775;67;1621;-19
2023/08/08 01:26:48;;;;;;;;;;;;;;;;;;2202790;59;1753;-19
2023/08/08 01:29:18;;;;;;;;;;;;;;;;;;2203052;66;1589;-19
2023/08/08 01:31:48;;;;;;;;;;;;;;;;;;2201552;59;2973;-19
2023/08/08 01:34:19;;;;;;;;;;;;;;;;;;2202333;59;1886;-19
2023/08/08 01:36:55;;;;;;;;;;;;;;;;;;2203385;60;1744;-19
2023/08/08 01:39:26;;;;;;;;;;;;;;;;;;2202215;66;2783;-19
2023/08/08 01:41:58;;;;;;;;;;;;;;;;;;2201987;66;3031;-19
2023/08/08 01:44:29;;;;;;;;;;;;;;;;;;2202583;59;2371;-19
2023/08/08 01:46:59;;;;;;;;;;;;;;;;;;2201646;66;1538;-19
2023/08/08 01:49:29;;;;;;;;;;;;;;;;;;2201529;67;1525;-19
2023/08/08 01:51:59;;;;;;;;;;;;;;;;;;2202785;58;1734;-19
2023/08/08 01:54:30;;;;;;;;;;;;;;;;;;2202133;59;1915;-19
2023/08/08 01:57:00;;;;;;;;;;;;;;;;;;2202320;58;2032;-19
2023/08/08 01:59:30;;;;;;;;;;;;;;;;;;2200804;66;1941;-19
2023/08/08 02:02:00;;;;;;;;;;;;;;;;;;2202207;59;2690;-19
2023/08/08 02:04:31;;;;;;;;;;;;;;;;;;2202107;58;1946;-19
2023/08/08 02:07:01;;;;;;;;;;;;;;;;;;2201690;66;1836;-19
2023/08/08 02:09:31;;;;;;;;;;;;;;;;;;2201664;66;2193;-19
2023/08/08 02:12:01;;;;;;;;;;;;;;;;;;2201699;59;1788;-19
2023/08/08 02:14:32;;;;;;;;;;;;;;;;;;2203007;66;1554;-19
2023/08/08 02:17:02;;;;;;;;;;;;;;;;;;2202148;66;1419;-19
2023/08/08 02:19:32;;;;;;;;;;;;;;;;;;2202815;66;2029;-19
2023/08/08 02:22:03;;;;;;;;;;;;;;;;;;2201307;66;1983;-19
2023/08/08 02:24:36;;;;;;;;;;;;;;;;;;2201088;66;1795;-19
2023/08/08 02:27:07;;;;;;;;;;;;;;;;;;2202854;59;1595;-19
2023/08/08 02:29:40;;;;;;;;;;;;;;;;;;2202136;67;2705;-19
2023/08/08 02:34:45;;;;;;;;;;;;;;;;;;2195427;59;3488;-16
2023/08/08 02:37:15;;;;;;;;;;;;;;;;;;2197292;66;1764;-16
2023/08/08 02:39:45;;;;;;;;;;;;;;;;;;2198115;67;1993;-16
2023/08/08 02:42:16;;;;;;;;;;;;;;;;;;2198475;66;1302;-16
2023/08/08 02:44:46;;;;;;;;;;;;;;;;;;2198393;59;1440;-16
2023/08/08 02:47:17;;;;;;;;;;;;;;;;;;2200248;66;1419;-16
2023/08/08 02:49:47;;;;;;;;;;;;;;;;;;2201068;59;1441;-16
2023/08/08 02:52:17;;;;;;;;;;;;;;;;;;2201270;58;1597;-16
2023/08/08 02:54:47;;;;;;;;;;;;;;;;;;2198711;59;1392;-17
2023/08/08 02:57:18;;;;;;;;;;;;;;;;;;2199952;59;1641;-17
2023/08/08 02:59:48;;;;;;;;;;;;;;;;;;2200105;59;1940;-16
2023/08/08 03:02:18;;;;;;;;;;;;;;;;;;2198818;66;2132;-16
2023/08/08 03:04:49;;;;;;;;;;;;;;;;;;2199201;58;1245;-17
2023/08/08 03:07:19;;;;;;;;;;;;;;;;;;2198594;66;1235;-17
2023/08/08 03:09:49;;;;;;;;;;;;;;;;;;2198922;66;1457;-17
2023/08/08 03:12:19;;;;;;;;;;;;;;;;;;2199097;59;1649;-17
2023/08/08 03:14:50;;;;;;;;;;;;;;;;;;2198995;66;1656;-16
2023/08/08 03:17:20;;;;;;;;;;;;;;;;;;2198973;66;1762;-16
2023/08/08 03:19:51;;;;;;;;;;;;;;;;;;2199293;66;1929;-17
2023/08/08 03:22:21;;;;;;;;;;;;;;;;;;2198171;66;2438;-17
2023/08/08 03:24:52;;;;;;;;;;;;;;;;;;2200978;66;1710;-18
2023/08/08 03:27:22;;;;;;;;;;;;;;;;;;2198771;59;1574;-17
2023/08/08 03:29:52;;;;;;;;;;;;;;;;;;2199768;66;1665;-17
2023/08/08 03:32:22;;;;;;;;;;;;;;;;;;2199035;59;2687;-17
2023/08/08 03:34:53;;;;;;;;;;;;;;;;;;2198877;59;2739;-17
2023/08/08 03:37:23;;;;;;;;;;;;;;;;;;2195826;66;1822;-17
2023/08/08 03:39:53;;;;;;;;;;;;;;;;;;2198672;66;2132;-17
2023/08/08 03:42:23;;;;;;;;;;;;;;;;;;2198579;66;2482;-17
2023/08/08 03:44:53;;;;;;;;;;;;;;;;;;2198668;59;1851;-18
2023/08/08 03:47:27;;;;;;;;;;;;;;;;;;2199116;66;2274;-17
2023/08/08 03:49:57;;;;;;;;;;;;;;;;;;2199813;59;2686;-17
2023/08/08 03:52:27;;;;;;;;;;;;;;;;;;2199721;58;2147;-17
2023/08/08 03:54:58;;;;;;;;;;;;;;;;;;2198470;59;1758;-17
2023/08/08 03:57:28;;;;;;;;;;;;;;;;;;2199462;59;1756;-17
2023/08/08 03:59:58;;;;;;;;;;;;;;;;;;2198636;59;3120;-17
2023/08/08 04:02:28;;;;;;;;;;;;;;;;;;2199772;66;1853;-16
2023/08/08 04:04:58;;;;;;;;;;;;;;;;;;2199351;58;1836;-17
2023/08/08 04:07:29;;;;;;;;;;;;;;;;;;2198273;67;1893;-17
2023/08/08 04:09:59;;;;;;;;;;;;;;;;;;2199003;66;2424;-17
2023/08/08 04:12:29;;;;;;;;;;;;;;;;;;2198851;59;1759;-17
2023/08/08 04:14:59;;;;;;;;;;;;;;;;;;2199062;66;1707;-17
2023/08/08 04:17:30;;;;;;;;;;;;;;;;;;2200279;66;2857;-17
2023/08/08 04:20:00;;;;;;;;;;;;;;;;;;2200934;66;2271;-18
2023/08/08 04:22:30;;;;;;;;;;;;;;;;;;2199296;66;2780;-17
2023/08/08 04:25:00;;;;;;;;;;;;;;;;;;2199653;59;2232;-17
2023/08/08 04:27:34;;;;;;;;;;;;;;;;;;2200334;59;2406;-17
2023/08/08 04:30:04;;;;;;;;;;;;;;;;;;2198830;59;2349;-17
2023/08/08 04:32:34;;;;;;;;;;;;;;;;;;2200088;59;2078;-18
2023/08/08 04:35:05;;;;;;;;;;;;;;;;;;2196933;59;3089;-17
2023/08/08 04:37:35;;;;;;;;;;;;;;;;;;2199502;66;1809;-17
2023/08/08 04:40:08;;;;;;;;;;;;;;;;;;2198976;66;1939;-17
2023/08/08 04:42:38;;;;;;;;;;;;;;;;;;2199512;66;3045;-17
2023/08/08 04:45:08;;;;;;;;;;;;;;;;;;2200536;59;1986;-17
2023/08/08 04:47:39;;;;;;;;;;;;;;;;;;2200322;66;2366;-17
2023/08/08 04:50:09;;;;;;;;;;;;;;;;;;2199043;59;1779;-17
2023/08/08 04:52:40;;;;;;;;;;;;;;;;;;2201645;58;2002;-17
2023/08/08 04:55:10;;;;;;;;;;;;;;;;;;2199730;59;2699;-18
2023/08/08 04:57:40;;;;;;;;;;;;;;;;;;2201641;59;1847;-18
2023/08/08 05:00:11;;;;;;;;;;;;;;;;;;2199873;59;2776;-17
2023/08/08 05:02:42;;;;;;;;;;;;;;;;;;2199698;66;1880;-17
2023/08/08 05:05:12;;;;;;;;;;;;;;;;;;2200135;58;1832;-18
2023/08/08 05:07:42;;;;;;;;;;;;;;;;;;2199416;66;1787;-17
2023/08/08 05:10:15;;;;;;;;;;;;;;;;;;2198921;66;1811;-17
2023/08/08 05:12:45;;;;;;;;;;;;;;;;;;2200572;59;1723;-17
2023/08/08 05:15:16;;;;;;;;;;;;;;;;;;2201091;66;1856;-16
2023/08/08 05:17:46;;;;;;;;;;;;;;;;;;2198590;66;1858;-18
2023/08/08 05:20:16;;;;;;;;;;;;;;;;;;2199517;66;1932;-17
2023/08/08 05:22:47;;;;;;;;;;;;;;;;;;2198850;66;1934;-18
2023/08/08 05:25:17;;;;;;;;;;;;;;;;;;2200278;66;2783;-18
2023/08/08 05:27:49;;;;;;;;;;;;;;;;;;2199284;59;1743;-17
2023/08/08 05:30:20;;;;;;;;;;;;;;;;;;2199415;59;2003;-17
2023/08/08 05:32:50;;;;;;;;;;;;;;;;;;2199192;59;1818;-17
2023/08/08 05:35:20;;;;;;;;;;;;;;;;;;2199321;59;2498;-17
2023/08/08 05:37:50;;;;;;;;;;;;;;;;;;2200268;66;3117;-18
2023/08/08 05:40:21;;;;;;;;;;;;;;;;;;2198759;66;2049;-17
2023/08/08 05:42:51;;;;;;;;;;;;;;;;;;2199957;66;1902;-18
2023/08/08 05:45:21;;;;;;;;;;;;;;;;;;2199153;59;2371;-17
2023/08/08 05:47:51;;;;;;;;;;;;;;;;;;2199774;59;1669;-17
2023/08/08 05:50:24;;;;;;;;;;;;;;;;;;2198891;59;1989;-17
2023/08/08 05:52:55;;;;;;;;;;;;;;;;;;2200367;58;1879;-17
2023/08/08 05:55:25;;;;;;;;;;;;;;;;;;2199385;59;1594;-17
2023/08/08 05:57:55;;;;;;;;;;;;;;;;;;2198622;66;1831;-17
2023/08/08 06:00:25;;;;;;;;;;;;;;;;;;2199165;59;1936;-17
2023/08/08 06:02:56;;;;;;;;;;;;;;;;;;2199504;66;1798;-17
2023/08/08 06:05:26;;;;;;;;;;;;;;;;;;2199883;66;1817;-18
2023/08/08 06:07:56;;;;;;;;;;;;;;;;;;2198502;66;1781;-19
2023/08/08 06:10:26;;;;;;;;;;;;;;;;;;2199116;66;2602;-17
2023/08/08 06:12:57;;;;;;;;;;;;;;;;;;2199056;59;1796;-18
2023/08/08 06:15:27;;;;;;;;;;;;;;;;;;2198654;66;2380;-18
2023/08/08 06:17:57;;;;;;;;;;;;;;;;;;2198942;66;2266;-18
2023/08/08 06:20:28;;;;;;;;;;;;;;;;;;2198711;59;1949;-17
2023/08/08 06:22:58;;;;;;;;;;;;;;;;;;2198282;67;2407;-17
2023/08/08 06:25:29;;;;;;;;;;;;;;;;;;2198892;66;1622;-17
2023/08/08 06:27:59;;;;;;;;;;;;;;;;;;2198788;59;2615;-17
2023/08/08 06:30:29;;;;;;;;;;;;;;;;;;2199651;59;1799;-17
2023/08/08 06:32:59;;;;;;;;;;;;;;;;;;2199304;59;2417;-18
2023/08/08 06:35:29;;;;;;;;;;;;;;;;;;2199123;59;2740;-18
2023/08/08 06:38:00;;;;;;;;;;;;;;;;;;2199312;66;2837;-18
2023/08/08 06:40:30;;;;;;;;;;;;;;;;;;2199036;66;2630;-18
2023/08/08 06:43:03;;;;;;;;;;;;;;;;;;2199526;66;1692;-17
2023/08/08 06:45:33;;;;;;;;;;;;;;;;;;2198753;59;1644;-17
2023/08/08 06:48:04;;;;;;;;;;;;;;;;;;2197861;66;1854;-18
2023/08/08 06:50:34;;;;;;;;;;;;;;;;;;2201504;66;2958;-18
2023/08/08 06:53:05;;;;;;;;;;;;;;;;;;2199442;59;1715;-17
2023/08/08 06:55:35;;;;;;;;;;;;;;;;;;2199790;59;2450;-17
2023/08/08 06:58:05;;;;;;;;;;;;;;;;;;2199780;66;1940;-17
2023/08/08 07:00:36;;;;;;;;;;;;;;;;;;2200477;59;2256;-18
2023/08/08 07:03:06;;;;;;;;;;;;;;;;;;2199260;66;2708;-18
2023/08/08 07:05:38;;;;;;;;;;;;;;;;;;2199693;58;2228;-18
2023/08/08 07:08:08;;;;;;;;;;;;;;;;;;2195687;67;1847;-18
2023/08/08 07:10:39;;;;;;;;;;;;;;;;;;2199251;59;1737;-18
2023/08/08 07:13:09;;;;;;;;;;;;;;;;;;2198438;59;2061;-20
2023/08/08 07:15:39;;;;;;;;;;;;;;;;;;2199787;66;1885;-18
2023/08/08 07:18:09;;;;;;;;;;;;;;;;;;2199338;66;2890;-19
2023/08/08 07:20:40;;;;;;;;;;;;;;;;;;2199483;66;1956;-18
2023/08/08 07:23:13;;;;;;;;;;;;;;;;;;2197689;66;1842;-18
2023/08/08 07:25:43;;;;;;;;;;;;;;;;;;2199850;66;1798;-18
2023/08/08 07:28:14;;;;;;;;;;;;;;;;;;2200071;59;2099;-18
2023/08/08 07:30:44;;;;;;;;;;;;;;;;;;2200872;66;1766;-18
2023/08/08 07:33:14;;;;;;;;;;;;;;;;;;2198889;58;1719;-18
2023/08/08 07:35:45;;;;;;;;;;;;;;;;;;2198867;66;1738;-17
2023/08/08 07:38:15;;;;;;;;;;;;;;;;;;2197637;66;2301;-18
2023/08/08 07:40:47;;;;;;;;;;;;;;;;;;2199029;66;2581;-19
2023/08/08 07:43:17;;;;;;;;;;;;;;;;;;2200315;66;1941;-18
2023/08/08 07:45:47;;;;;;;;;;;;;;;;;;2198737;59;2225;-18
2023/08/08 07:48:17;;;;;;;;;;;;;;;;;;2201467;66;1874;-19
2023/08/08 07:50:48;;;;;;;;;;;;;;;;;;2198874;59;1846;-18
2023/08/08 07:53:18;;;;;;;;;;;;;;;;;;2199950;58;1847;-18
2023/08/08 07:55:48;;;;;;;;;;;;;;;;;;2198790;59;2670;-18
2023/08/08 07:58:19;;;;;;;;;;;;;;;;;;2199563;66;1945;-18
2023/08/08 08:00:49;;;;;;;;;;;;;;;;;;2199338;59;2212;-18
2023/08/08 08:03:20;;;;;;;;;;;;;;;;;;2199682;66;2861;-18
2023/08/08 08:05:50;;;;;;;;;;;;;;;;;;2200896;59;3227;-17
2023/08/08 08:08:21;;;;;;;;;;;;;;;;;;2199898;66;1858;-18
2023/08/08 08:10:51;;;;;;;;;;;;;;;;;;2199711;66;1811;-19
2023/08/08 08:13:21;;;;;;;;;;;;;;;;;;2200845;59;1958;-19
2023/08/08 08:15:52;;;;;;;;;;;;;;;;;;2200517;66;1759;-19
2023/08/08 08:18:22;;;;;;;;;;;;;;;;;;2199632;66;3363;-19
2023/08/08 08:20:52;;;;;;;;;;;;;;;;;;2200336;66;2674;-19
2023/08/08 08:23:22;;;;;;;;;;;;;;;;;;2200054;66;1858;-18
2023/08/08 08:25:52;;;;;;;;;;;;;;;;;;2199390;59;1902;-19
2023/08/08 08:28:23;;;;;;;;;;;;;;;;;;2199305;66;1987;-19
2023/08/08 08:30:53;;;;;;;;;;;;;;;;;;2199712;59;1857;-19
2023/08/08 08:33:23;;;;;;;;;;;;;;;;;;2202494;53;1975;-24
2023/08/08 08:35:53;;;;;;;;;;;;;;;;;;2197246;66;1681;-24
2023/08/08 08:38:24;;;;;;;;;;;;;;;;;;2197376;64;3004;-24
2023/08/08 08:40:55;;;;;;;;;;;;;;;;;;2197204;66;2166;-24
2023/08/08 08:43:26;;;;;;;;;;;;;;;;;;2197639;66;1893;-24
2023/08/08 08:45:59;;;;;;;;;;;;;;;;;;2200054;59;2101;-24
2023/08/08 08:48:31;;;;;;;;;;;;;;;;;;2201140;66;2348;-24
2023/08/08 08:51:04;;;;;;;;;;;;;;;;;;2196799;59;2001;-24
2023/08/08 08:53:39;;;;;;;;;;;;;;;;;;2197965;59;1861;-24
2023/08/08 08:56:09;;;;;;;;;;;;;;;;;;2197982;59;1886;-24
2023/08/08 08:58:40;;;;;;;;;;;;;;;;;;2197941;66;2565;-24
2023/08/08 09:01:11;;;;;;;;;;;;;;;;;;2196625;59;1866;-24
2023/08/08 09:03:43;;;;;;;;;;;;;;;;;;2197812;59;1772;-24
2023/08/08 09:06:13;;;;;;;;;;;;;;;;;;2198230;66;1748;-24
2023/08/08 09:08:45;;;;;;;;;;;;;;;;;;2197292;59;1843;-24
2023/08/08 09:11:15;;;;;;;;;;;;;;;;;;2198331;59;1471;-24
2023/08/08 09:13:45;;;;;;;;;;;;;;;;;;2198583;66;2792;-24
2023/08/08 09:16:15;;;;;;;;;;;;;;;;;;2199447;66;1809;-24
2023/08/08 09:18:46;;;;;;;;;;;;;;;;;;2197612;66;2256;-24
2023/08/08 09:21:16;;;;;;;;;;;;;;;;;;2198532;66;1876;-24
2023/08/08 09:23:47;;;;;;;;;;;;;;;;;;2198419;66;2340;-24
2023/08/08 09:26:17;;;;;;;;;;;;;;;;;;2199171;59;1804;-24
2023/08/08 09:28:47;;;;;;;;;;;;;;;;;;2198303;66;2670;-24
2023/08/08 09:31:18;;;;;;;;;;;;;;;;;;2198963;66;2009;-24
2023/08/08 09:33:51;;;;;;;;;;;;;;;;;;2199925;59;2043;-24
2023/08/08 09:36:22;;;;;;;;;;;;;;;;;;2199115;66;2159;-24
2023/08/08 09:38:53;;;;;;;;;;;;;;;;;;2197124;59;2477;-24
2023/08/08 09:41:23;;;;;;;;;;;;;;;;;;2199345;59;2293;-24
2023/08/08 09:43:54;;;;;;;;;;;;;;;;;;2200617;66;2315;-25
2023/08/08 09:46:29;;;;;;;;;;;;;;;;;;2199912;59;3304;-24
2023/08/08 09:49:00;;;;;;;;;;;;;;;;;;2198246;66;2038;-24
2023/08/08 09:51:30;;;;;;;;;;;;;;;;;;2199662;59;1980;-24
2023/08/08 09:54:01;;;;;;;;;;;;;;;;;;2199007;59;2434;-24
2023/08/08 09:56:32;;;;;;;;;;;;;;;;;;2198361;66;2384;-25
2023/08/08 09:59:04;;;;;;;;;;;;;;;;;;2199489;66;1979;-23
2023/08/08 10:01:35;;;;;;;;;;;;;;;;;;2198571;59;2670;-23
2023/08/08 10:04:06;;;;;;;;;;;;;;;;;;2201041;59;1734;-23
2023/08/08 10:06:36;;;;;;;;;;;;;;;;;;2199795;66;2490;-22
2023/08/08 10:09:07;;;;;;;;;;;;;;;;;;2198557;66;2029;-23
2023/08/08 10:11:37;;;;;;;;;;;;;;;;;;2199966;59;2996;-23
2023/08/08 10:14:10;;;;;;;;;;;;;;;;;;2197996;66;1761;-23
2023/08/08 10:16:46;;;;;;;;;;;;;;;;;;2198387;66;1917;-23
2023/08/08 10:19:21;;;;;;;;;;;;;;;;;;2199024;66;1941;-23
2023/08/08 10:21:57;;;;;;;;;;;;;;;;;;2197945;66;2604;-23
2023/08/08 10:24:32;;;;;;;;;;;;;;;;;;2200160;66;2071;-22
2023/08/08 10:27:07;;;;;;;;;;;;;;;;;;2199852;59;3741;-22
2023/08/08 10:29:38;;;;;;;;;;;;;;;;;;2198437;66;1641;-22
2023/08/08 10:32:08;;;;;;;;;;;;;;;;;;2197297;59;2490;-22
2023/08/08 10:34:46;;;;;;;;;;;;;;;;;;2199915;66;1794;-22
2023/08/08 10:37:17;;;;;;;;;;;;;;;;;;2200144;66;1753;-22
2023/08/08 10:39:52;;;;;;;;;;;;;;;;;;2198034;66;2837;-22
2023/08/08 10:42:23;;;;;;;;;;;;;;;;;;2197535;63;2484;-22
2023/08/08 10:44:55;;;;;;;;;;;;;;;;;;2200540;59;2062;-22
2023/08/08 10:47:26;;;;;;;;;;;;;;;;;;2199922;58;1747;-22
2023/08/08 10:50:11;;;;;;;;;;;;;;;;;;2198134;59;2398;-22
2023/08/08 10:53:01;;;;;;;;;;;;;;;;;;2200421;59;2007;-22
2023/08/08 10:55:33;;;;;;;;;;;;;;;;;;2198348;59;2172;-23
2023/08/08 10:58:05;;;;;;;;;;;;;;;;;;2201239;66;2310;-23
2023/08/08 11:00:36;;;;;;;;;;;;;;;;;;2199426;59;2006;-23
2023/08/08 11:03:08;;;;;;;;;;;;;;;;;;2197181;66;3310;-23
2023/08/08 11:05:39;;;;;;;;;;;;;;;;;;2199689;59;2386;-23
2023/08/08 11:08:09;;;;;;;;;;;;;;;;;;2197683;66;2367;-23
2023/08/08 11:10:40;;;;;;;;;;;;;;;;;;2196893;59;2248;-23
2023/08/08 11:13:10;;;;;;;;;;;;;;;;;;2196086;59;1920;-23
2023/08/08 11:15:41;;;;;;;;;;;;;;;;;;2199642;66;2513;-23
2023/08/08 11:18:12;;;;;;;;;;;;;;;;;;2200603;59;2632;-23
2023/08/08 11:20:42;;;;;;;;;;;;;;;;;;2199070;66;1737;-23
2023/08/08 11:23:13;;;;;;;;;;;;;;;;;;2198254;66;1802;-23
2023/08/08 11:25:44;;;;;;;;;;;;;;;;;;2199207;59;1745;-23
2023/08/08 11:28:15;;;;;;;;;;;;;;;;;;2198244;59;1574;-23
2023/08/08 11:30:45;;;;;;;;;;;;;;;;;;2197866;66;1755;-23
2023/08/08 11:33:17;;;;;;;;;;;;;;;;;;2197763;58;1839;-23
2023/08/08 11:35:49;;;;;;;;;;;;;;;;;;2200215;66;2969;-24
2023/08/08 11:38:19;;;;;;;;;;;;;;;;;;2198444;66;2877;-24
2023/08/08 11:40:49;;;;;;;;;;;;;;;;;;2197895;66;2621;-24
2023/08/08 11:43:20;;;;;;;;;;;;;;;;;;2198581;66;2425;-24
2023/08/08 11:45:51;;;;;;;;;;;;;;;;;;2198718;59;2242;-23
2023/08/08 11:48:21;;;;;;;;;;;;;;;;;;2200436;66;3145;-23
2023/08/08 11:50:52;;;;;;;;;;;;;;;;;;2198426;59;1915;-23
2023/08/08 11:53:23;;;;;;;;;;;;;;;;;;2198886;59;2006;-23
2023/08/08 11:55:53;;;;;;;;;;;;;;;;;;2197493;59;2117;-24
2023/08/08 11:58:24;;;;;;;;;;;;;;;;;;2201334;66;1949;-24
2023/08/08 12:00:55;;;;;;;;;;;;;;;;;;2198882;59;2310;-24
2023/08/08 12:03:26;;;;;;;;;;;;;;;;;;2201243;66;2263;-24
2023/08/08 12:05:56;;;;;;;;;;;;;;;;;;2198765;59;2698;-23
2023/08/08 12:08:30;;;;;;;;;;;;;;;;;;2200287;66;1795;-24
2023/08/08 12:11:00;;;;;;;;;;;;;;;;;;2197361;66;1849;-24
2023/08/08 12:13:30;;;;;;;;;;;;;;;;;;2199571;59;1794;-24
2023/08/08 12:16:01;;;;;;;;;;;;;;;;;;2197675;66;2666;-23
2023/08/08 12:18:32;;;;;;;;;;;;;;;;;;2196925;66;2145;-23
2023/08/08 12:21:02;;;;;;;;;;;;;;;;;;2196442;59;1863;-24
2023/08/08 12:23:33;;;;;;;;;;;;;;;;;;2199104;59;2424;-23
2023/08/08 12:26:05;;;;;;;;;;;;;;;;;;2200004;59;1957;-23
2023/08/08 12:28:35;;;;;;;;;;;;;;;;;;2200701;66;1970;-24
2023/08/08 12:31:05;;;;;;;;;;;;;;;;;;2198698;59;2446;-24
2023/08/08 12:33:35;;;;;;;;;;;;;;;;;;2198113;59;2401;-23
2023/08/08 12:36:05;;;;;;;;;;;;;;;;;;2202535;66;2360;-24
2023/08/08 12:38:36;;;;;;;;;;;;;;;;;;2198620;66;2637;-24
2023/08/08 12:41:06;;;;;;;;;;;;;;;;;;2196616;66;2180;-23
2023/08/08 12:43:36;;;;;;;;;;;;;;;;;;2197872;59;3008;-23
2023/08/08 12:46:06;;;;;;;;;;;;;;;;;;2196366;59;2676;-23
2023/08/08 12:48:37;;;;;;;;;;;;;;;;;;2198088;66;1965;-23
2023/08/08 12:51:08;;;;;;;;;;;;;;;;;;2197420;59;3571;-23
2023/08/08 12:53:40;;;;;;;;;;;;;;;;;;2197993;58;2255;-23
2023/08/08 12:56:10;;;;;;;;;;;;;;;;;;2197126;59;2545;-23
2023/08/08 12:58:40;;;;;;;;;;;;;;;;;;2197338;66;1929;-23
2023/08/08 13:01:10;;;;;;;;;;;;;;;;;;2198717;59;2562;-23
2023/08/08 13:03:41;;;;;;;;;;;;;;;;;;2199138;59;1848;-23
2023/08/08 13:06:13;;;;;;;;;;;;;;;;;;2197096;66;2092;-23
2023/08/08 13:08:43;;;;;;;;;;;;;;;;;;2199601;59;1771;-23
2023/08/08 13:11:13;;;;;;;;;;;;;;;;;;2197983;59;1886;-23
2023/08/08 13:13:44;;;;;;;;;;;;;;;;;;2197645;66;2465;-23
2023/08/08 13:16:14;;;;;;;;;;;;;;;;;;2197691;59;2395;-23
2023/08/08 13:18:44;;;;;;;;;;;;;;;;;;2198031;66;2011;-23
2023/08/08 13:21:15;;;;;;;;;;;;;;;;;;2199828;66;1821;-23
2023/08/08 13:23:45;;;;;;;;;;;;;;;;;;2197326;66;1786;-23
2023/08/08 13:26:16;;;;;;;;;;;;;;;;;;2198668;59;2004;-23
2023/08/08 13:28:46;;;;;;;;;;;;;;;;;;2199847;66;2399;-23
2023/08/08 13:31:16;;;;;;;;;;;;;;;;;;2198756;59;1855;-23
2023/08/08 13:33:46;;;;;;;;;;;;;;;;;;2200859;58;1809;-23
2023/08/08 13:36:17;;;;;;;;;;;;;;;;;;2200109;66;1846;-23
2023/08/08 13:38:47;;;;;;;;;;;;;;;;;;2198294;66;1989;-23
2023/08/08 13:41:17;;;;;;;;;;;;;;;;;;2198883;66;1894;-23
2023/08/08 13:43:47;;;;;;;;;;;;;;;;;;2199384;59;2735;-23
2023/08/08 13:46:18;;;;;;;;;;;;;;;;;;2199630;59;2401;-23
2023/08/08 13:48:48;;;;;;;;;;;;;;;;;;2198386;66;1768;-23
2023/08/08 13:51:18;;;;;;;;;;;;;;;;;;2198143;59;2843;-23
2023/08/08 13:53:49;;;;;;;;;;;;;;;;;;2199448;59;2403;-23
2023/08/08 13:56:19;;;;;;;;;;;;;;;;;;2198009;66;2126;-23
2023/08/08 13:58:49;;;;;;;;;;;;;;;;;;2198197;66;1948;-23
2023/08/08 14:01:19;;;;;;;;;;;;;;;;;;2199259;59;2639;-23
2023/08/08 14:03:49;;;;;;;;;;;;;;;;;;2197552;59;1805;-23
2023/08/08 14:06:20;;;;;;;;;;;;;;;;;;2199800;66;2415;-23
2023/08/08 14:08:52;;;;;;;;;;;;;;;;;;2199557;66;2871;-23
2023/08/08 14:11:22;;;;;;;;;;;;;;;;;;2197435;59;2302;-23
2023/08/08 14:13:52;;;;;;;;;;;;;;;;;;2196529;66;1958;-24
2023/08/08 14:16:22;;;;;;;;;;;;;;;;;;2196491;66;2080;-24
2023/08/08 14:18:53;;;;;;;;;;;;;;;;;;2197134;66;1940;-24
2023/08/08 14:21:23;;;;;;;;;;;;;;;;;;2196498;66;2395;-24
2023/08/08 14:23:53;;;;;;;;;;;;;;;;;;2195917;66;1728;-24
2023/08/08 14:26:23;;;;;;;;;;;;;;;;;;2199479;59;1748;-24
2023/08/08 14:28:53;;;;;;;;;;;;;;;;;;2196296;60;2395;-24
2023/08/08 14:31:24;;;;;;;;;;;;;;;;;;2197342;59;1958;-24
2023/08/08 14:33:54;;;;;;;;;;;;;;;;;;2198607;58;2714;-24
2023/08/08 14:36:24;;;;;;;;;;;;;;;;;;2198239;66;1969;-24
2023/08/08 14:38:54;;;;;;;;;;;;;;;;;;2198585;66;2538;-24
2023/08/08 14:41:25;;;;;;;;;;;;;;;;;;2200502;66;1776;-24
2023/08/08 14:43:55;;;;;;;;;;;;;;;;;;2196898;66;2629;-24
2023/08/08 14:46:25;;;;;;;;;;;;;;;;;;2197990;59;2352;-24
2023/08/08 14:48:56;;;;;;;;;;;;;;;;;;2196919;66;1942;-23
2023/08/08 14:51:27;;;;;;;;;;;;;;;;;;2198207;59;1608;-23
2023/08/08 14:53:58;;;;;;;;;;;;;;;;;;2197699;58;2340;-23
2023/08/08 14:56:28;;;;;;;;;;;;;;;;;;2198033;59;2306;-23
2023/08/08 14:58:58;;;;;;;;;;;;;;;;;;2198158;66;2001;-23
2023/08/08 15:01:28;;;;;;;;;;;;;;;;;;2199008;59;2280;-23
2023/08/08 15:03:58;;;;;;;;;;;;;;;;;;2198444;66;3086;-23
2023/08/08 15:06:29;;;;;;;;;;;;;;;;;;2199905;66;3057;-23
2023/08/08 15:09:00;;;;;;;;;;;;;;;;;;2197268;59;2701;-23
2023/08/08 15:11:30;;;;;;;;;;;;;;;;;;2198860;59;2459;-23
2023/08/08 15:14:01;;;;;;;;;;;;;;;;;;2195586;66;2286;-23
2023/08/08 15:16:31;;;;;;;;;;;;;;;;;;2197451;66;1940;-23
2023/08/08 15:19:02;;;;;;;;;;;;;;;;;;2199119;66;2613;-23
2023/08/08 15:21:32;;;;;;;;;;;;;;;;;;2197726;59;2015;-23
2023/08/08 15:24:02;;;;;;;;;;;;;;;;;;2198478;66;2686;-23
2023/08/08 15:26:33;;;;;;;;;;;;;;;;;;2198460;59;2380;-23
2023/08/08 15:29:03;;;;;;;;;;;;;;;;;;2198712;66;2021;-23
2023/08/08 15:31:33;;;;;;;;;;;;;;;;;;2199863;59;1865;-23
2023/08/08 15:34:04;;;;;;;;;;;;;;;;;;2199121;58;1882;-23
2023/08/08 15:36:34;;;;;;;;;;;;;;;;;;2200057;66;1817;-23
2023/08/08 15:39:04;;;;;;;;;;;;;;;;;;2199527;66;2583;-23
2023/08/08 15:41:36;;;;;;;;;;;;;;;;;;2199745;66;2517;-23
2023/08/08 15:44:06;;;;;;;;;;;;;;;;;;2197186;59;2308;-23
2023/08/08 15:46:36;;;;;;;;;;;;;;;;;;2197380;59;2407;-23
2023/08/08 15:49:07;;;;;;;;;;;;;;;;;;2198700;66;1987;-23
2023/08/08 15:51:37;;;;;;;;;;;;;;;;;;2198456;59;1816;-23
2023/08/08 15:54:07;;;;;;;;;;;;;;;;;;2198929;59;2060;-23
2023/08/08 15:56:38;;;;;;;;;;;;;;;;;;2199382;59;1750;-23
2023/08/08 15:59:08;;;;;;;;;;;;;;;;;;2198189;66;2002;-23
2023/08/08 16:01:38;;;;;;;;;;;;;;;;;;2199194;59;1806;-23
2023/08/08 16:04:10;;;;;;;;;;;;;;;;;;2197983;59;1866;-23
2023/08/08 16:06:40;;;;;;;;;;;;;;;;;;2198832;66;1820;-23
2023/08/08 16:09:11;;;;;;;;;;;;;;;;;;2197401;66;1800;-23
2023/08/08 16:11:41;;;;;;;;;;;;;;;;;;2201338;59;2414;-23
2023/08/08 16:14:11;;;;;;;;;;;;;;;;;;2197975;66;2413;-23
2023/08/08 16:16:41;;;;;;;;;;;;;;;;;;2197498;66;2085;-23
2023/08/08 16:19:12;;;;;;;;;;;;;;;;;;2197575;66;2009;-23
2023/08/08 16:21:42;;;;;;;;;;;;;;;;;;2197058;66;2030;-23
2023/08/08 16:24:12;;;;;;;;;;;;;;;;;;2198661;66;1799;-23
2023/08/08 16:26:45;;;;;;;;;;;;;;;;;;2200443;59;1728;-23
2023/08/08 16:29:15;;;;;;;;;;;;;;;;;;2198883;66;2481;-23
2023/08/08 16:31:47;;;;;;;;;;;;;;;;;;2200347;59;4181;-23
2023/08/08 16:34:17;;;;;;;;;;;;;;;;;;2197766;58;2110;-23
2023/08/08 16:36:47;;;;;;;;;;;;;;;;;;2199642;59;1766;-23
2023/08/08 16:39:18;;;;;;;;;;;;;;;;;;2198929;66;2279;-23
2023/08/08 16:41:48;;;;;;;;;;;;;;;;;;2199652;66;2106;-23
2023/08/08 16:44:21;;;;;;;;;;;;;;;;;;2197702;59;2253;-23
2023/08/08 16:46:52;;;;;;;;;;;;;;;;;;2198109;62;2789;-23
2023/08/08 16:49:22;;;;;;;;;;;;;;;;;;2196876;59;1959;-23
2023/08/08 16:51:52;;;;;;;;;;;;;;;;;;2198024;59;1789;-23
2023/08/08 16:54:22;;;;;;;;;;;;;;;;;;2199778;58;2304;-23
2023/08/08 16:56:53;;;;;;;;;;;;;;;;;;2198814;66;1767;-23
2023/08/08 16:59:23;;;;;;;;;;;;;;;;;;2196897;66;2487;-23
2023/08/08 17:01:53;;;;;;;;;;;;;;;;;;2198198;59;1913;-23
2023/08/08 17:04:24;;;;;;;;;;;;;;;;;;2197316;59;2767;-23
2023/08/08 17:06:54;;;;;;;;;;;;;;;;;;2196882;66;2901;-23
2023/08/08 17:09:24;;;;;;;;;;;;;;;;;;2199615;66;1915;-23
2023/08/08 17:11:54;;;;;;;;;;;;;;;;;;2196737;59;1848;-23
2023/08/08 17:14:24;;;;;;;;;;;;;;;;;;2198583;66;2048;-23
2023/08/08 17:16:55;;;;;;;;;;;;;;;;;;2198588;66;1791;-23
2023/08/08 17:19:25;;;;;;;;;;;;;;;;;;2197070;66;2002;-23
2023/08/08 17:21:56;;;;;;;;;;;;;;;;;;2196285;66;1890;-23
2023/08/08 17:24:26;;;;;;;;;;;;;;;;;;2198713;59;1459;-23
2023/08/08 17:26:57;;;;;;;;;;;;;;;;;;2197326;59;2015;-23
2023/08/08 17:29:27;;;;;;;;;;;;;;;;;;2198335;59;1971;-23